Strona główna
METAR-TAF:

METAR-TAF

Lotnisko :

Gove, Australia

Szerokość geograficzna: 12-16-12S, Długość geograficzna: 136-49-06E, wysokość: 62 m

Aktualna obserwacja pogody

Raport powstał 22 minut temu, godzina 23:00 UTC
Wiatr 4 kt od północ
Temperatura 30°C
Wilgotność 79%
Ciśnienie 1011 hPa
Widzialność 10 km lub więcej
Zachmurzenie całkowite na wysokości 11000 ft

METAR: YPGV 102300Z AUTO 01004KT 9999 // OVC110 30/26 Q1011

czas: 08:52 (23:22 UTC)

Prognoza

Raport powstał 5 godziny i 8 minut temu, godzina 18:14 UTC
Prognoza ważna od 10 godzina 20 UTC do 11 godzina 08 UTC
Wiatr 3 kt z kierunków zmiennych
Widzialność 10 km lub więcej
Mało chmury na wysokości 2000 ft
Od 11 godzina 0000 UTC
Wiatr 10 kt od północ
Widzialność 10 km lub więcej
Rozproszone chmury na wysokości 2500 ft

TAF: YPGV 101814Z 1020/1108 VRB03KT 9999 FEW020 FM110000 01010KT 9999 SCT025

Obserwacja i prognoza pogody dla ponad 4000 lotnisk (raport METAR i TAF).

Dostępne stacje oznaczono żółtymi i czerwonymi punktami na mapie.

Najedź kursorem aby zobaczyć nazwę stacji.

Kliknij aby zobaczyć obserwacje i prognozy pogody.

Aby zmienić mapę: kliknij na zielony przycisk z czarnym krzyżykiem, aby powiększyć; na zielony przycisk z myślnikiem, aby pomniejszyć; na zielone strzałki, aby przejść do map sąsiednich.


METAR-TAF: